sensor_id;sensor_type;location;lat;lon;timestamp;P1;durP1;ratioP1;P2;durP2;ratioP2
54699;SDS011;40599;53.132;6.090;2022-09-13T00:01:07;35.27;;;24.13;;
54699;SDS011;40599;53.132;6.090;2022-09-13T00:03:33;35.97;;;23.50;;
54699;SDS011;40599;53.132;6.090;2022-09-13T00:06:06;36.50;;;24.92;;
54699;SDS011;40599;53.132;6.090;2022-09-13T00:08:37;35.33;;;23.33;;
54699;SDS011;40599;53.132;6.090;2022-09-13T00:11:03;35.20;;;25.23;;
54699;SDS011;40599;53.132;6.090;2022-09-13T00:13:29;34.63;;;22.52;;
54699;SDS011;40599;53.132;6.090;2022-09-13T00:15:55;34.47;;;22.63;;
54699;SDS011;40599;53.132;6.090;2022-09-13T00:18:20;36.70;;;24.17;;
54699;SDS011;40599;53.132;6.090;2022-09-13T00:20:46;34.33;;;23.83;;
54699;SDS011;40599;53.132;6.090;2022-09-13T00:23:12;32.45;;;22.30;;
54699;SDS011;40599;53.132;6.090;2022-09-13T00:25:38;37.00;;;24.53;;
54699;SDS011;40599;53.132;6.090;2022-09-13T00:28:04;35.30;;;25.08;;
54699;SDS011;40599;53.132;6.090;2022-09-13T00:30:30;37.87;;;25.50;;
54699;SDS011;40599;53.132;6.090;2022-09-13T00:32:56;37.03;;;25.20;;
54699;SDS011;40599;53.132;6.090;2022-09-13T00:35:22;36.30;;;25.13;;
54699;SDS011;40599;53.132;6.090;2022-09-13T00:37:48;31.07;;;23.03;;
54699;SDS011;40599;53.132;6.090;2022-09-13T00:40:14;36.65;;;23.35;;
54699;SDS011;40599;53.132;6.090;2022-09-13T00:42:40;34.35;;;24.40;;
54699;SDS011;40599;53.132;6.090;2022-09-13T00:50:12;31.67;;;22.20;;
54699;SDS011;40599;53.132;6.090;2022-09-13T00:52:40;34.77;;;22.37;;
54699;SDS011;40599;53.132;6.090;2022-09-13T00:58:24;31.03;;;21.90;;
54699;SDS011;40599;53.132;6.090;2022-09-13T01:00:56;28.33;;;20.77;;
54699;SDS011;40599;53.132;6.090;2022-09-13T01:03:24;27.20;;;19.70;;
54699;SDS011;40599;53.132;6.090;2022-09-13T01:05:59;30.70;;;21.10;;
54699;SDS011;40599;53.132;6.090;2022-09-13T01:08:30;29.43;;;20.77;;
54699;SDS011;40599;53.132;6.090;2022-09-13T01:10:57;30.65;;;20.27;;
54699;SDS011;40599;53.132;6.090;2022-09-13T01:13:26;28.70;;;19.20;;
54699;SDS011;40599;53.132;6.090;2022-09-13T01:15:56;26.83;;;19.17;;
54699;SDS011;40599;53.132;6.090;2022-09-13T01:18:22;25.42;;;17.67;;
54699;SDS011;40599;53.132;6.090;2022-09-13T01:26:38;23.40;;;16.93;;
54699;SDS011;40599;53.132;6.090;2022-09-13T01:49:41;21.80;;;15.00;;
54699;SDS011;40599;53.132;6.090;2022-09-13T01:57:18;21.77;;;15.70;;
54699;SDS011;40599;53.132;6.090;2022-09-13T02:00:13;20.20;;;14.93;;
54699;SDS011;40599;53.132;6.090;2022-09-13T02:05:23;22.03;;;15.67;;
54699;SDS011;40599;53.132;6.090;2022-09-13T02:10:56;20.40;;;14.60;;
54699;SDS011;40599;53.132;6.090;2022-09-13T02:13:28;22.20;;;15.73;;
54699;SDS011;40599;53.132;6.090;2022-09-13T02:16:06;23.93;;;15.43;;
54699;SDS011;40599;53.132;6.090;2022-09-13T02:18:40;20.70;;;15.37;;
54699;SDS011;40599;53.132;6.090;2022-09-13T02:21:26;21.87;;;15.27;;
54699;SDS011;40599;53.132;6.090;2022-09-13T02:24:06;24.47;;;15.40;;
54699;SDS011;40599;53.132;6.090;2022-09-13T02:26:35;21.43;;;15.73;;
54699;SDS011;40599;53.132;6.090;2022-09-13T02:29:07;22.57;;;15.40;;
54699;SDS011;40599;53.132;6.090;2022-09-13T02:31:41;20.27;;;15.67;;
54699;SDS011;40599;53.132;6.090;2022-09-13T02:34:13;25.23;;;16.23;;
54699;SDS011;40599;53.132;6.090;2022-09-13T02:36:48;28.30;;;16.60;;
54699;SDS011;40599;53.132;6.090;2022-09-13T02:39:17;25.20;;;17.00;;
54699;SDS011;40599;53.132;6.090;2022-09-13T02:41:51;20.20;;;16.13;;
54699;SDS011;40599;53.132;6.090;2022-09-13T02:47:03;24.00;;;17.67;;
54699;SDS011;40599;53.132;6.090;2022-09-13T03:00:38;18.97;;;11.17;;
54699;SDS011;40599;53.132;6.090;2022-09-13T03:03:06;12.32;;;9.82;;
54699;SDS011;40599;53.132;6.090;2022-09-13T03:05:36;11.00;;;7.60;;
54699;SDS011;40599;53.132;6.090;2022-09-13T03:08:02;13.90;;;7.17;;
54699;SDS011;40599;53.132;6.090;2022-09-13T03:10:31;10.93;;;6.57;;
54699;SDS011;40599;53.132;6.090;2022-09-13T03:13:27;9.13;;;5.20;;
54699;SDS011;40599;53.132;6.090;2022-09-13T03:24:22;5.20;;;3.27;;
54699;SDS011;40599;53.132;6.090;2022-09-13T03:27:27;6.00;;;2.97;;
54699;SDS011;40599;53.132;6.090;2022-09-13T03:30:05;5.03;;;3.37;;
54699;SDS011;40599;53.132;6.090;2022-09-13T03:32:52;5.30;;;3.30;;
54699;SDS011;40599;53.132;6.090;2022-09-13T03:35:42;6.10;;;3.63;;
54699;SDS011;40599;53.132;6.090;2022-09-13T03:38:11;6.17;;;3.33;;
54699;SDS011;40599;53.132;6.090;2022-09-13T03:40:58;5.63;;;3.53;;
54699;SDS011;40599;53.132;6.090;2022-09-13T03:46:13;5.60;;;4.20;;
54699;SDS011;40599;53.132;6.090;2022-09-13T03:48:43;5.80;;;3.30;;
54699;SDS011;40599;53.132;6.090;2022-09-13T03:51:09;5.03;;;2.97;;
54699;SDS011;40599;53.132;6.090;2022-09-13T03:53:37;4.78;;;3.10;;
54699;SDS011;40599;53.132;6.090;2022-09-13T03:56:17;4.47;;;3.13;;
54699;SDS011;40599;53.132;6.090;2022-09-13T03:58:44;6.63;;;3.30;;
54699;SDS011;40599;53.132;6.090;2022-09-13T04:01:11;11.57;;;3.17;;
54699;SDS011;40599;53.132;6.090;2022-09-13T04:03:37;6.90;;;2.97;;
54699;SDS011;40599;53.132;6.090;2022-09-13T04:06:04;4.23;;;2.97;;
54699;SDS011;40599;53.132;6.090;2022-09-13T04:08:30;4.90;;;3.00;;
54699;SDS011;40599;53.132;6.090;2022-09-13T04:10:57;6.13;;;2.80;;
54699;SDS011;40599;53.132;6.090;2022-09-13T04:13:23;6.47;;;2.50;;
54699;SDS011;40599;53.132;6.090;2022-09-13T04:15:49;4.67;;;2.80;;
54699;SDS011;40599;53.132;6.090;2022-09-13T04:18:15;9.02;;;3.60;;
54699;SDS011;40599;53.132;6.090;2022-09-13T04:20:41;7.90;;;3.20;;
54699;SDS011;40599;53.132;6.090;2022-09-13T04:23:07;7.90;;;3.13;;
54699;SDS011;40599;53.132;6.090;2022-09-13T04:25:33;5.55;;;2.88;;
54699;SDS011;40599;53.132;6.090;2022-09-13T04:28:02;7.30;;;3.23;;
54699;SDS011;40599;53.132;6.090;2022-09-13T04:30:27;4.73;;;3.00;;
54699;SDS011;40599;53.132;6.090;2022-09-13T04:32:53;8.35;;;2.58;;
54699;SDS011;40599;53.132;6.090;2022-09-13T04:35:23;6.43;;;2.93;;
54699;SDS011;40599;53.132;6.090;2022-09-13T04:37:50;6.07;;;2.72;;
54699;SDS011;40599;53.132;6.090;2022-09-13T04:40:15;3.97;;;2.47;;
54699;SDS011;40599;53.132;6.090;2022-09-13T04:42:44;7.23;;;2.93;;
54699;SDS011;40599;53.132;6.090;2022-09-13T04:45:10;9.17;;;2.90;;
54699;SDS011;40599;53.132;6.090;2022-09-13T04:47:35;4.80;;;2.63;;
54699;SDS011;40599;53.132;6.090;2022-09-13T04:50:02;7.00;;;2.95;;
54699;SDS011;40599;53.132;6.090;2022-09-13T04:52:28;3.63;;;2.63;;
54699;SDS011;40599;53.132;6.090;2022-09-13T04:54:53;8.90;;;3.10;;
54699;SDS011;40599;53.132;6.090;2022-09-13T04:57:20;8.85;;;2.83;;
54699;SDS011;40599;53.132;6.090;2022-09-13T04:59:46;7.13;;;3.10;;
54699;SDS011;40599;53.132;6.090;2022-09-13T05:02:12;7.30;;;2.70;;
54699;SDS011;40599;53.132;6.090;2022-09-13T05:04:38;7.13;;;2.97;;
54699;SDS011;40599;53.132;6.090;2022-09-13T05:07:04;4.82;;;2.63;;
54699;SDS011;40599;53.132;6.090;2022-09-13T05:09:29;9.50;;;3.20;;
54699;SDS011;40599;53.132;6.090;2022-09-13T05:11:55;8.40;;;3.20;;
54699;SDS011;40599;53.132;6.090;2022-09-13T05:14:21;4.80;;;2.90;;
54699;SDS011;40599;53.132;6.090;2022-09-13T05:16:46;4.57;;;3.27;;
54699;SDS011;40599;53.132;6.090;2022-09-13T05:19:12;4.90;;;3.20;;
54699;SDS011;40599;53.132;6.090;2022-09-13T05:21:38;6.93;;;3.00;;
54699;SDS011;40599;53.132;6.090;2022-09-13T05:24:03;6.57;;;2.80;;
54699;SDS011;40599;53.132;6.090;2022-09-13T05:26:29;6.47;;;3.22;;
54699;SDS011;40599;53.132;6.090;2022-09-13T05:28:56;5.45;;;3.45;;
54699;SDS011;40599;53.132;6.090;2022-09-13T05:31:32;6.83;;;3.10;;
54699;SDS011;40599;53.132;6.090;2022-09-13T05:34:01;8.30;;;3.43;;
54699;SDS011;40599;53.132;6.090;2022-09-13T05:36:46;7.50;;;3.60;;
54699;SDS011;40599;53.132;6.090;2022-09-13T05:39:15;7.57;;;3.40;;
54699;SDS011;40599;53.132;6.090;2022-09-13T05:41:46;11.67;;;3.57;;
54699;SDS011;40599;53.132;6.090;2022-09-13T05:44:12;4.68;;;3.58;;
54699;SDS011;40599;53.132;6.090;2022-09-13T05:46:38;8.65;;;3.38;;
54699;SDS011;40599;53.132;6.090;2022-09-13T05:49:04;5.28;;;3.13;;
54699;SDS011;40599;53.132;6.090;2022-09-13T05:51:29;5.20;;;3.20;;
54699;SDS011;40599;53.132;6.090;2022-09-13T05:53:56;7.27;;;3.27;;
54699;SDS011;40599;53.132;6.090;2022-09-13T05:56:24;6.90;;;3.20;;
54699;SDS011;40599;53.132;6.090;2022-09-13T05:58:52;7.33;;;3.77;;
54699;SDS011;40599;53.132;6.090;2022-09-13T06:01:20;7.43;;;3.63;;
54699;SDS011;40599;53.132;6.090;2022-09-13T06:03:51;6.43;;;3.40;;
54699;SDS011;40599;53.132;6.090;2022-09-13T06:06:19;5.33;;;3.43;;
54699;SDS011;40599;53.132;6.090;2022-09-13T06:08:46;8.27;;;3.53;;
54699;SDS011;40599;53.132;6.090;2022-09-13T06:11:13;7.90;;;3.08;;
54699;SDS011;40599;53.132;6.090;2022-09-13T06:13:39;7.77;;;3.33;;
54699;SDS011;40599;53.132;6.090;2022-09-13T06:16:08;8.93;;;2.80;;
54699;SDS011;40599;53.132;6.090;2022-09-13T06:18:36;6.00;;;2.80;;
54699;SDS011;40599;53.132;6.090;2022-09-13T06:21:03;8.43;;;3.40;;
54699;SDS011;40599;53.132;6.090;2022-09-13T06:23:31;9.93;;;2.97;;
54699;SDS011;40599;53.132;6.090;2022-09-13T06:26:01;9.73;;;3.13;;
54699;SDS011;40599;53.132;6.090;2022-09-13T06:28:26;9.03;;;2.90;;
54699;SDS011;40599;53.132;6.090;2022-09-13T06:30:57;10.07;;;3.03;;
54699;SDS011;40599;53.132;6.090;2022-09-13T06:33:24;7.67;;;2.80;;
54699;SDS011;40599;53.132;6.090;2022-09-13T06:35:50;10.93;;;3.10;;
54699;SDS011;40599;53.132;6.090;2022-09-13T06:38:15;9.40;;;2.83;;
54699;SDS011;40599;53.132;6.090;2022-09-13T06:40:41;12.80;;;2.90;;
54699;SDS011;40599;53.132;6.090;2022-09-13T06:43:07;8.00;;;2.63;;
54699;SDS011;40599;53.132;6.090;2022-09-13T06:45:32;7.47;;;2.35;;
54699;SDS011;40599;53.132;6.090;2022-09-13T06:47:58;12.33;;;2.87;;
54699;SDS011;40599;53.132;6.090;2022-09-13T06:50:24;8.33;;;2.83;;
54699;SDS011;40599;53.132;6.090;2022-09-13T06:52:49;5.27;;;2.87;;
54699;SDS011;40599;53.132;6.090;2022-09-13T06:55:15;8.82;;;2.50;;
54699;SDS011;40599;53.132;6.090;2022-09-13T06:57:41;7.43;;;2.43;;
54699;SDS011;40599;53.132;6.090;2022-09-13T07:00:07;6.03;;;2.30;;
54699;SDS011;40599;53.132;6.090;2022-09-13T07:02:33;6.07;;;2.20;;
54699;SDS011;40599;53.132;6.090;2022-09-13T07:04:59;7.97;;;2.37;;
54699;SDS011;40599;53.132;6.090;2022-09-13T07:07:25;9.97;;;2.47;;
54699;SDS011;40599;53.132;6.090;2022-09-13T07:09:50;8.20;;;2.70;;
54699;SDS011;40599;53.132;6.090;2022-09-13T07:12:16;5.07;;;2.00;;
54699;SDS011;40599;53.132;6.090;2022-09-13T07:14:42;9.87;;;2.50;;
54699;SDS011;40599;53.132;6.090;2022-09-13T07:17:07;5.17;;;2.03;;
54699;SDS011;40599;53.132;6.090;2022-09-13T07:19:33;9.53;;;2.30;;
54699;SDS011;40599;53.132;6.090;2022-09-13T07:21:59;3.93;;;1.97;;
54699;SDS011;40599;53.132;6.090;2022-09-13T07:24:25;6.47;;;2.40;;
54699;SDS011;40599;53.132;6.090;2022-09-13T07:26:51;7.00;;;2.28;;
54699;SDS011;40599;53.132;6.090;2022-09-13T07:29:19;8.15;;;2.20;;
54699;SDS011;40599;53.132;6.090;2022-09-13T07:31:48;8.73;;;2.10;;
54699;SDS011;40599;53.132;6.090;2022-09-13T07:34:15;3.63;;;2.17;;
54699;SDS011;40599;53.132;6.090;2022-09-13T07:36:42;5.17;;;2.60;;
54699;SDS011;40599;53.132;6.090;2022-09-13T07:39:09;6.47;;;2.13;;
54699;SDS011;40599;53.132;6.090;2022-09-13T07:41:34;7.45;;;2.05;;
54699;SDS011;40599;53.132;6.090;2022-09-13T07:44:01;5.00;;;2.03;;
54699;SDS011;40599;53.132;6.090;2022-09-13T07:46:29;4.37;;;1.73;;
54699;SDS011;40599;53.132;6.090;2022-09-13T07:49:00;4.77;;;1.70;;
54699;SDS011;40599;53.132;6.090;2022-09-13T07:51:27;4.55;;;1.90;;
54699;SDS011;40599;53.132;6.090;2022-09-13T07:53:55;5.47;;;1.93;;
54699;SDS011;40599;53.132;6.090;2022-09-13T07:56:24;4.97;;;1.57;;
54699;SDS011;40599;53.132;6.090;2022-09-13T07:58:52;5.77;;;1.97;;
54699;SDS011;40599;53.132;6.090;2022-09-13T08:03:58;6.03;;;1.75;;
54699;SDS011;40599;53.132;6.090;2022-09-13T08:06:29;6.23;;;1.60;;
54699;SDS011;40599;53.132;6.090;2022-09-13T08:08:55;8.80;;;2.00;;
54699;SDS011;40599;53.132;6.090;2022-09-13T08:11:26;5.63;;;1.63;;
54699;SDS011;40599;53.132;6.090;2022-09-13T08:13:57;6.33;;;1.67;;
54699;SDS011;40599;53.132;6.090;2022-09-13T08:16:24;10.30;;;1.93;;
54699;SDS011;40599;53.132;6.090;2022-09-13T08:18:52;6.13;;;1.60;;
54699;SDS011;40599;53.132;6.090;2022-09-13T08:21:20;11.07;;;1.47;;
54699;SDS011;40599;53.132;6.090;2022-09-13T08:23:47;5.63;;;1.87;;
54699;SDS011;40599;53.132;6.090;2022-09-13T08:26:12;6.83;;;1.67;;
54699;SDS011;40599;53.132;6.090;2022-09-13T08:28:39;6.10;;;1.70;;
54699;SDS011;40599;53.132;6.090;2022-09-13T08:31:12;5.03;;;1.83;;
54699;SDS011;40599;53.132;6.090;2022-09-13T08:33:44;4.60;;;1.70;;
54699;SDS011;40599;53.132;6.090;2022-09-13T08:36:11;7.50;;;1.87;;
54699;SDS011;40599;53.132;6.090;2022-09-13T08:38:36;6.95;;;1.60;;
54699;SDS011;40599;53.132;6.090;2022-09-13T08:41:03;5.87;;;1.57;;
54699;SDS011;40599;53.132;6.090;2022-09-13T08:46:32;6.10;;;1.90;;
54699;SDS011;40599;53.132;6.090;2022-09-13T08:49:05;5.80;;;1.70;;
54699;SDS011;40599;53.132;6.090;2022-09-13T08:54:12;11.98;;;1.60;;
54699;SDS011;40599;53.132;6.090;2022-09-13T08:56:42;7.77;;;1.73;;
54699;SDS011;40599;53.132;6.090;2022-09-13T09:02:04;6.37;;;1.70;;
54699;SDS011;40599;53.132;6.090;2022-09-13T09:07:33;8.10;;;1.80;;
54699;SDS011;40599;53.132;6.090;2022-09-13T09:16:40;11.98;;;2.65;;
54699;SDS011;40599;53.132;6.090;2022-09-13T09:18:45;6.77;;;1.63;;
54699;SDS011;40599;53.132;6.090;2022-09-13T09:21:15;5.03;;;1.70;;
54699;SDS011;40599;53.132;6.090;2022-09-13T09:23:49;10.50;;;2.00;;
54699;SDS011;40599;53.132;6.090;2022-09-13T09:26:23;6.30;;;1.88;;
54699;SDS011;40599;53.132;6.090;2022-09-13T09:28:54;6.73;;;1.90;;
54699;SDS011;40599;53.132;6.090;2022-09-13T09:31:40;5.60;;;1.50;;
54699;SDS011;40599;53.132;6.090;2022-09-13T09:34:24;5.40;;;1.67;;
54699;SDS011;40599;53.132;6.090;2022-09-13T09:36:54;10.50;;;1.63;;
54699;SDS011;40599;53.132;6.090;2022-09-13T09:39:30;6.40;;;1.90;;
54699;SDS011;40599;53.132;6.090;2022-09-13T09:44:25;5.43;;;1.80;;
54699;SDS011;40599;53.132;6.090;2022-09-13T09:46:56;6.70;;;1.60;;
54699;SDS011;40599;53.132;6.090;2022-09-13T09:52:28;9.93;;;2.43;;
54699;SDS011;40599;53.132;6.090;2022-09-13T09:55:06;7.03;;;2.10;;
54699;SDS011;40599;53.132;6.090;2022-09-13T09:57:51;7.37;;;2.20;;
54699;SDS011;40599;53.132;6.090;2022-09-13T10:00:25;6.00;;;2.20;;
54699;SDS011;40599;53.132;6.090;2022-09-13T10:02:56;8.03;;;1.80;;
54699;SDS011;40599;53.132;6.090;2022-09-13T10:05:30;7.50;;;1.90;;
54699;SDS011;40599;53.132;6.090;2022-09-13T10:08:00;5.97;;;1.80;;
54699;SDS011;40599;53.132;6.090;2022-09-13T10:13:06;5.80;;;1.90;;
54699;SDS011;40599;53.132;6.090;2022-09-13T10:15:40;9.03;;;2.13;;
54699;SDS011;40599;53.132;6.090;2022-09-13T10:18:22;5.20;;;1.60;;
54699;SDS011;40599;53.132;6.090;2022-09-13T10:23:44;5.43;;;1.80;;
54699;SDS011;40599;53.132;6.090;2022-09-13T10:26:21;7.07;;;1.70;;
54699;SDS011;40599;53.132;6.090;2022-09-13T10:31:30;7.60;;;1.90;;
54699;SDS011;40599;53.132;6.090;2022-09-13T10:34:04;6.53;;;1.60;;
54699;SDS011;40599;53.132;6.090;2022-09-13T10:36:34;5.13;;;1.60;;
54699;SDS011;40599;53.132;6.090;2022-09-13T10:39:03;3.87;;;1.93;;
54699;SDS011;40599;53.132;6.090;2022-09-13T10:41:41;9.63;;;1.97;;
54699;SDS011;40599;53.132;6.090;2022-09-13T10:46:57;9.33;;;2.10;;
54699;SDS011;40599;53.132;6.090;2022-09-13T10:49:41;5.97;;;2.00;;
54699;SDS011;40599;53.132;6.090;2022-09-13T10:52:30;7.93;;;1.93;;
54699;SDS011;40599;53.132;6.090;2022-09-13T10:55:40;6.90;;;1.95;;
54699;SDS011;40599;53.132;6.090;2022-09-13T10:58:14;7.57;;;2.07;;
54699;SDS011;40599;53.132;6.090;2022-09-13T11:03:46;8.10;;;1.87;;
54699;SDS011;40599;53.132;6.090;2022-09-13T11:17:54;6.83;;;1.73;;
54699;SDS011;40599;53.132;6.090;2022-09-13T11:20:52;7.43;;;1.80;;
54699;SDS011;40599;53.132;6.090;2022-09-13T11:23:41;7.47;;;2.00;;
54699;SDS011;40599;53.132;6.090;2022-09-13T11:26:34;7.70;;;1.93;;
54699;SDS011;40599;53.132;6.090;2022-09-13T11:34:28;5.07;;;1.73;;
54699;SDS011;40599;53.132;6.090;2022-09-13T11:42:52;7.27;;;1.67;;
54699;SDS011;40599;53.132;6.090;2022-09-13T11:45:22;5.03;;;1.90;;
54699;SDS011;40599;53.132;6.090;2022-09-13T11:56:02;9.87;;;2.17;;
54699;SDS011;40599;53.132;6.090;2022-09-13T11:58:41;12.53;;;2.20;;
54699;SDS011;40599;53.132;6.090;2022-09-13T12:01:24;9.77;;;2.87;;
54699;SDS011;40599;53.132;6.090;2022-09-13T12:04:03;13.98;;;2.28;;
54699;SDS011;40599;53.132;6.090;2022-09-13T12:07:09;12.77;;;2.40;;
54699;SDS011;40599;53.132;6.090;2022-09-13T12:09:45;10.40;;;2.20;;
54699;SDS011;40599;53.132;6.090;2022-09-13T12:12:17;10.67;;;2.30;;
54699;SDS011;40599;53.132;6.090;2022-09-13T12:14:56;9.93;;;2.57;;
54699;SDS011;40599;53.132;6.090;2022-09-13T12:17:41;10.10;;;2.63;;
54699;SDS011;40599;53.132;6.090;2022-09-13T12:20:17;8.50;;;2.50;;
54699;SDS011;40599;53.132;6.090;2022-09-13T12:22:53;8.40;;;2.10;;
54699;SDS011;40599;53.132;6.090;2022-09-13T12:25:23;12.07;;;2.30;;
54699;SDS011;40599;53.132;6.090;2022-09-13T12:28:02;8.17;;;2.60;;
54699;SDS011;40599;53.132;6.090;2022-09-13T12:30:46;7.33;;;2.23;;
54699;SDS011;40599;53.132;6.090;2022-09-13T12:33:18;9.37;;;2.07;;
54699;SDS011;40599;53.132;6.090;2022-09-13T12:38:30;8.93;;;2.10;;
54699;SDS011;40599;53.132;6.090;2022-09-13T12:43:59;11.77;;;2.40;;
54699;SDS011;40599;53.132;6.090;2022-09-13T13:01:17;6.53;;;2.23;;
54699;SDS011;40599;53.132;6.090;2022-09-13T13:06:24;7.43;;;2.30;;
54699;SDS011;40599;53.132;6.090;2022-09-13T13:09:35;9.13;;;2.17;;
54699;SDS011;40599;53.132;6.090;2022-09-13T13:12:00;8.70;;;2.30;;
54699;SDS011;40599;53.132;6.090;2022-09-13T13:14:42;10.10;;;2.15;;
54699;SDS011;40599;53.132;6.090;2022-09-13T13:25:56;8.77;;;2.30;;
54699;SDS011;40599;53.132;6.090;2022-09-13T13:34:30;10.10;;;2.30;;
54699;SDS011;40599;53.132;6.090;2022-09-13T13:36:47;8.07;;;1.97;;
54699;SDS011;40599;53.132;6.090;2022-09-13T13:41:54;7.47;;;1.80;;
54699;SDS011;40599;53.132;6.090;2022-09-13T13:46:49;11.32;;;2.38;;
54699;SDS011;40599;53.132;6.090;2022-09-13T13:59:53;12.73;;;2.13;;
54699;SDS011;40599;53.132;6.090;2022-09-13T14:02:38;10.47;;;2.13;;
54699;SDS011;40599;53.132;6.090;2022-09-13T14:11:30;6.90;;;1.97;;
54699;SDS011;40599;53.132;6.090;2022-09-13T14:19:39;7.20;;;2.07;;
54699;SDS011;40599;53.132;6.090;2022-09-13T14:22:22;7.40;;;1.93;;
54699;SDS011;40599;53.132;6.090;2022-09-13T14:24:48;6.40;;;2.20;;
54699;SDS011;40599;53.132;6.090;2022-09-13T14:27:25;7.50;;;1.80;;
54699;SDS011;40599;53.132;6.090;2022-09-13T14:29:54;10.47;;;2.30;;
54699;SDS011;40599;53.132;6.090;2022-09-13T14:32:26;9.43;;;2.30;;
54699;SDS011;40599;53.132;6.090;2022-09-13T14:34:55;12.27;;;2.00;;
54699;SDS011;40599;53.132;6.090;2022-09-13T14:37:30;11.23;;;2.37;;
54699;SDS011;40599;53.132;6.090;2022-09-13T14:42:39;7.27;;;2.30;;
54699;SDS011;40599;53.132;6.090;2022-09-13T14:45:14;11.47;;;2.00;;
54699;SDS011;40599;53.132;6.090;2022-09-13T14:50:23;9.03;;;1.80;;
54699;SDS011;40599;53.132;6.090;2022-09-13T14:53:13;6.93;;;2.03;;
54699;SDS011;40599;53.132;6.090;2022-09-13T14:55:41;12.10;;;2.00;;
54699;SDS011;40599;53.132;6.090;2022-09-13T14:58:16;6.53;;;2.10;;
54699;SDS011;40599;53.132;6.090;2022-09-13T15:00:53;6.77;;;2.00;;
54699;SDS011;40599;53.132;6.090;2022-09-13T15:03:22;5.80;;;1.90;;
54699;SDS011;40599;53.132;6.090;2022-09-13T15:05:49;8.07;;;1.98;;
54699;SDS011;40599;53.132;6.090;2022-09-13T15:11:04;8.17;;;2.03;;
54699;SDS011;40599;53.132;6.090;2022-09-13T15:13:32;5.27;;;1.67;;
54699;SDS011;40599;53.132;6.090;2022-09-13T15:18:33;11.37;;;2.33;;
54699;SDS011;40599;53.132;6.090;2022-09-13T15:21:05;7.00;;;2.00;;
54699;SDS011;40599;53.132;6.090;2022-09-13T15:23:40;5.30;;;1.70;;
54699;SDS011;40599;53.132;6.090;2022-09-13T15:26:19;9.17;;;2.33;;
54699;SDS011;40599;53.132;6.090;2022-09-13T15:31:30;9.10;;;1.83;;
54699;SDS011;40599;53.132;6.090;2022-09-13T15:36:42;6.00;;;2.00;;
54699;SDS011;40599;53.132;6.090;2022-09-13T15:41:35;7.03;;;1.85;;
54699;SDS011;40599;53.132;6.090;2022-09-13T15:44:03;7.60;;;2.00;;
54699;SDS011;40599;53.132;6.090;2022-09-13T15:46:31;5.83;;;1.70;;
54699;SDS011;40599;53.132;6.090;2022-09-13T15:49:00;5.23;;;1.80;;
54699;SDS011;40599;53.132;6.090;2022-09-13T15:51:28;11.70;;;2.00;;
54699;SDS011;40599;53.132;6.090;2022-09-13T15:53:54;8.45;;;2.10;;
54699;SDS011;40599;53.132;6.090;2022-09-13T15:56:21;7.57;;;1.77;;
54699;SDS011;40599;53.132;6.090;2022-09-13T15:58:58;9.63;;;1.60;;
54699;SDS011;40599;53.132;6.090;2022-09-13T16:01:24;6.68;;;2.25;;
54699;SDS011;40599;53.132;6.090;2022-09-13T16:03:51;10.70;;;2.23;;
54699;SDS011;40599;53.132;6.090;2022-09-13T16:06:17;8.27;;;1.90;;
54699;SDS011;40599;53.132;6.090;2022-09-13T16:08:43;7.50;;;1.60;;
54699;SDS011;40599;53.132;6.090;2022-09-13T16:11:09;5.95;;;1.67;;
54699;SDS011;40599;53.132;6.090;2022-09-13T16:13:35;5.30;;;1.83;;
54699;SDS011;40599;53.132;6.090;2022-09-13T16:16:01;5.57;;;1.45;;
54699;SDS011;40599;53.132;6.090;2022-09-13T16:18:29;4.77;;;1.67;;
54699;SDS011;40599;53.132;6.090;2022-09-13T16:20:55;3.95;;;1.63;;
54699;SDS011;40599;53.132;6.090;2022-09-13T16:23:21;8.60;;;2.00;;
54699;SDS011;40599;53.132;6.090;2022-09-13T16:25:47;7.53;;;1.60;;
54699;SDS011;40599;53.132;6.090;2022-09-13T16:28:16;7.10;;;1.60;;
54699;SDS011;40599;53.132;6.090;2022-09-13T16:30:45;8.70;;;1.67;;
54699;SDS011;40599;53.132;6.090;2022-09-13T16:33:12;7.20;;;1.97;;
54699;SDS011;40599;53.132;6.090;2022-09-13T16:35:37;8.63;;;1.88;;
54699;SDS011;40599;53.132;6.090;2022-09-13T16:38:03;11.40;;;1.67;;
54699;SDS011;40599;53.132;6.090;2022-09-13T16:40:29;6.10;;;1.60;;
54699;SDS011;40599;53.132;6.090;2022-09-13T16:42:55;3.87;;;1.33;;
54699;SDS011;40599;53.132;6.090;2022-09-13T16:45:20;6.22;;;1.70;;
54699;SDS011;40599;53.132;6.090;2022-09-13T16:47:46;9.38;;;1.75;;
54699;SDS011;40599;53.132;6.090;2022-09-13T16:50:12;6.10;;;1.65;;
54699;SDS011;40599;53.132;6.090;2022-09-13T16:52:38;4.88;;;1.40;;
54699;SDS011;40599;53.132;6.090;2022-09-13T16:55:05;6.75;;;1.70;;
54699;SDS011;40599;53.132;6.090;2022-09-13T16:57:31;10.85;;;1.73;;
54699;SDS011;40599;53.132;6.090;2022-09-13T16:59:57;6.57;;;1.40;;
54699;SDS011;40599;53.132;6.090;2022-09-13T17:02:26;7.93;;;1.85;;
54699;SDS011;40599;53.132;6.090;2022-09-13T17:04:52;9.03;;;1.57;;
54699;SDS011;40599;53.132;6.090;2022-09-13T17:07:18;8.90;;;1.75;;
54699;SDS011;40599;53.132;6.090;2022-09-13T17:09:44;10.07;;;1.77;;
54699;SDS011;40599;53.132;6.090;2022-09-13T17:12:10;6.50;;;1.52;;
54699;SDS011;40599;53.132;6.090;2022-09-13T17:14:38;6.90;;;1.87;;
54699;SDS011;40599;53.132;6.090;2022-09-13T17:17:06;5.17;;;1.57;;
54699;SDS011;40599;53.132;6.090;2022-09-13T17:19:33;8.07;;;1.52;;
54699;SDS011;40599;53.132;6.090;2022-09-13T17:21:59;5.93;;;1.45;;
54699;SDS011;40599;53.132;6.090;2022-09-13T17:24:27;6.23;;;1.60;;
54699;SDS011;40599;53.132;6.090;2022-09-13T17:26:55;4.47;;;1.60;;
54699;SDS011;40599;53.132;6.090;2022-09-13T17:29:22;6.10;;;1.40;;
54699;SDS011;40599;53.132;6.090;2022-09-13T17:31:55;9.53;;;1.77;;
54699;SDS011;40599;53.132;6.090;2022-09-13T17:34:21;6.00;;;1.53;;
54699;SDS011;40599;53.132;6.090;2022-09-13T17:36:47;9.60;;;1.77;;
54699;SDS011;40599;53.132;6.090;2022-09-13T17:39:13;4.87;;;1.37;;
54699;SDS011;40599;53.132;6.090;2022-09-13T17:41:39;7.57;;;1.70;;
54699;SDS011;40599;53.132;6.090;2022-09-13T17:44:04;5.63;;;1.97;;
54699;SDS011;40599;53.132;6.090;2022-09-13T17:46:30;5.60;;;1.50;;
54699;SDS011;40599;53.132;6.090;2022-09-13T17:48:57;6.07;;;1.63;;
54699;SDS011;40599;53.132;6.090;2022-09-13T17:51:27;4.63;;;1.50;;
54699;SDS011;40599;53.132;6.090;2022-09-13T17:53:55;5.53;;;1.60;;
54699;SDS011;40599;53.132;6.090;2022-09-13T17:56:25;6.57;;;1.60;;
54699;SDS011;40599;53.132;6.090;2022-09-13T17:59:03;6.00;;;1.70;;
54699;SDS011;40599;53.132;6.090;2022-09-13T18:01:34;3.90;;;1.53;;
54699;SDS011;40599;53.132;6.090;2022-09-13T18:04:02;4.20;;;1.50;;
54699;SDS011;40599;53.132;6.090;2022-09-13T18:06:27;3.57;;;1.63;;
54699;SDS011;40599;53.132;6.090;2022-09-13T18:08:53;8.10;;;1.63;;
54699;SDS011;40599;53.132;6.090;2022-09-13T18:11:19;6.97;;;1.40;;
54699;SDS011;40599;53.132;6.090;2022-09-13T18:13:45;4.40;;;1.40;;
54699;SDS011;40599;53.132;6.090;2022-09-13T18:16:16;5.55;;;2.00;;
54699;SDS011;40599;53.132;6.090;2022-09-13T18:18:47;4.97;;;1.70;;
54699;SDS011;40599;53.132;6.090;2022-09-13T18:21:14;4.60;;;1.70;;
54699;SDS011;40599;53.132;6.090;2022-09-13T18:23:48;6.90;;;1.90;;
54699;SDS011;40599;53.132;6.090;2022-09-13T18:26:16;5.63;;;1.43;;
54699;SDS011;40599;53.132;6.090;2022-09-13T18:28:44;3.57;;;1.83;;
54699;SDS011;40599;53.132;6.090;2022-09-13T18:33:40;4.73;;;1.70;;
54699;SDS011;40599;53.132;6.090;2022-09-13T18:36:08;3.88;;;1.70;;
54699;SDS011;40599;53.132;6.090;2022-09-13T18:38:40;4.60;;;1.57;;
54699;SDS011;40599;53.132;6.090;2022-09-13T18:41:08;8.13;;;1.77;;
54699;SDS011;40599;53.132;6.090;2022-09-13T18:43:39;6.80;;;2.03;;
54699;SDS011;40599;53.132;6.090;2022-09-13T18:46:07;3.87;;;1.80;;
54699;SDS011;40599;53.132;6.090;2022-09-13T18:48:41;6.40;;;1.80;;